Aviation Digital Data Service (ADDS)

Output produced by METARs form (1133 UTC 21 February 2018)
found at http://aviationweather.gov/adds/metars/
 
KLYH 201409Z 2014/2112 00000KT 3/4SM BR OVC002 
     TEMPO 2014/2016 3SM BR SCT002 BKN015 
     FM201700 21010KT P6SM SCT020 
     FM210600 20005KT 4SM BR OVC009